Time;durP1;ratioP1;P1;durP2;ratioP2;P2;SDS_P1;SDS_P2;PMS_P1;PMS_P2;Temp;Humidity;BMP_temperature;BMP_pressure;BME280_temperature;BME280_humidity;BME280_pressure;Samples;Min_cycle;Max_cycle;Signal;HPM_P1;HPM_P2
2023/06/29 00:03:52;;;;;;;;;;;20.80;45.80;;;20.11;46.15;101304.31;12246228;19;19918;-84
2023/06/29 00:07:58;;;;;;;;;;;20.80;45.90;;;19.86;46.68;101276.44;12251000;19;19922;-84
2023/06/29 00:11:59;;;;;;;;;;;20.70;46.00;;;19.86;46.69;101289.69;12247592;19;19922;-85
2023/06/29 00:16:01;;;;;;;;;;;20.60;45.90;;;19.72;46.48;101279.44;12250154;19;19918;-85
2023/06/29 00:20:04;;;;;;;;;;;20.50;45.90;;;19.69;46.44;101285.84;12251165;19;19915;-85
2023/06/29 00:24:06;;;;;;;;;;;20.50;45.90;;;19.73;46.72;101302.31;12246195;19;19918;-84
2023/06/29 00:28:07;;;;;;;;;;;20.40;45.90;;;19.66;46.57;101307.28;12249011;19;19937;-85
2023/06/29 00:32:10;;;;;;;;;;;20.30;46.00;;;19.58;46.59;101312.38;12246532;19;19990;-84
2023/06/29 00:36:11;;;;;;;;;;;20.20;46.00;;;19.49;46.54;101299.88;12248009;19;19919;-85
2023/06/29 00:40:13;;;;;;;;;;;20.20;46.10;;;19.45;46.84;101289.53;12246796;19;19935;-85
2023/06/29 00:44:15;;;;;;;;;;;20.10;46.20;;;19.42;46.62;101300.41;12247124;19;19915;-84
2023/06/29 00:48:17;;;;;;;;;;;20.10;46.30;;;19.42;46.74;101292.44;12247982;19;20046;-85
2023/06/29 00:52:19;;;;;;;;;;;20.10;46.30;;;19.34;46.78;101292.25;12245329;19;19927;-84
2023/06/29 00:56:21;;;;;;;;;;;20.10;46.20;;;18.98;46.60;101246.69;12246226;19;19983;-84
2023/06/29 01:00:22;;;;;;;;;;;20.00;46.10;;;19.19;46.71;101301.44;12246445;19;19922;-84
2023/06/29 01:04:27;;;;;;;;;;;19.90;46.10;;;19.14;46.78;101285.09;12242787;19;20381;-84
2023/06/29 01:08:33;;;;;;;;;;;19.80;46.20;;;19.00;46.76;101278.28;12242703;19;19986;-84
2023/06/29 01:12:35;;;;;;;;;;;19.70;46.20;;;18.79;47.09;101249.13;12243150;19;19911;-84
2023/06/29 01:16:38;;;;;;;;;;;19.70;46.30;;;18.93;46.89;101272.69;12245426;19;19918;-85
2023/06/29 01:20:41;;;;;;;;;;;19.70;46.40;;;18.88;46.99;101271.38;12246771;19;19918;-84
2023/06/29 01:24:43;;;;;;;;;;;19.60;46.40;;;18.79;46.91;101267.66;12242782;19;19915;-84
2023/06/29 01:28:48;;;;;;;;;;;19.60;46.40;;;18.83;47.19;101271.75;12245268;19;20016;-84
2023/06/29 01:32:50;;;;;;;;;;;19.50;46.50;;;18.73;46.99;101266.31;12243262;19;19941;-84
2023/06/29 01:36:52;;;;;;;;;;;19.50;46.50;;;18.49;47.21;101247.13;12245925;19;19919;-84
2023/06/29 01:40:56;;;;;;;;;;;19.40;46.30;;;18.55;47.27;101251.91;12246541;19;19918;-84
2023/06/29 01:44:59;;;;;;;;;;;19.30;46.50;;;18.48;47.28;101246.28;12242920;19;19923;-84
2023/06/29 01:49:01;;;;;;;;;;;19.30;46.40;;;18.46;47.22;101250.03;12245038;19;19922;-84
2023/06/29 01:53:03;;;;;;;;;;;19.30;46.50;;;18.39;47.20;101240.91;12242990;19;19919;-85
2023/06/29 01:57:06;;;;;;;;;;;19.20;46.60;;;18.47;47.53;101257.84;12246646;19;19945;-84
2023/06/29 02:01:08;;;;;;;;;;;19.20;46.60;;;18.42;47.52;101253.91;12245991;19;19911;-84
2023/06/29 02:05:10;;;;;;;;;;;19.20;46.60;;;18.22;47.63;101221.94;12243388;19;19923;-84
2023/06/29 02:09:14;;;;;;;;;;;19.20;46.60;;;18.41;47.38;101255.69;12244230;19;19933;-85
2023/06/29 02:13:16;;;;;;;;;;;19.20;46.70;;;18.37;47.38;101256.91;12241523;19;19923;-84
2023/06/29 02:17:18;;;;;;;;;;;19.20;46.80;;;18.30;47.47;101242.47;12249445;19;19926;-84
2023/06/29 02:21:22;;;;;;;;;;;19.10;46.70;;;18.33;47.65;101258.09;12254248;19;19919;-84
2023/06/29 02:25:24;;;;;;;;;;;19.10;46.70;;;18.33;47.50;101258.09;12255372;19;19918;-85
2023/06/29 02:29:25;;;;;;;;;;;19.10;46.80;;;18.25;47.45;101249.94;12254410;19;19915;-84
2023/06/29 02:33:28;;;;;;;;;;;19.00;46.70;;;18.20;47.57;101247.66;12248231;19;19986;-84
2023/06/29 02:37:29;;;;;;;;;;;19.00;46.70;;;17.96;47.93;101218.72;12251292;19;19927;-85
2023/06/29 02:41:31;;;;;;;;;;;19.00;46.70;;;18.15;47.69;101260.41;12252950;19;20349;-84
2023/06/29 02:45:33;;;;;;;;;;;18.90;46.70;;;18.12;47.90;101256.19;12253881;19;20008;-84
2023/06/29 02:49:35;;;;;;;;;;;19.00;46.80;;;18.03;47.64;101248.13;12253880;19;20023;-84
2023/06/29 02:53:37;;;;;;;;;;;18.90;46.70;;;18.11;47.63;101257.13;12250611;19;19915;-84
2023/06/29 02:57:39;;;;;;;;;;;18.90;46.80;;;18.01;47.90;101247.41;12253080;19;20267;-84
2023/06/29 03:01:41;;;;;;;;;;;18.90;46.80;;;17.96;47.66;101241.63;12251828;19;19927;-84
2023/06/29 03:05:43;;;;;;;;;;;18.90;46.80;;;17.90;47.67;101242.97;12254060;19;19926;-84
2023/06/29 03:09:44;;;;;;;;;;;18.80;46.70;;;17.90;47.62;101249.13;12252251;19;19919;-84
2023/06/29 03:13:46;;;;;;;;;;;18.80;46.70;;;17.89;47.79;101262.44;12249040;19;19911;-84
2023/06/29 03:17:48;;;;;;;;;;;18.70;46.70;;;17.70;47.62;101245.31;12252934;19;19986;-84
2023/06/29 03:21:49;;;;;;;;;;;18.70;46.70;;;17.80;47.88;101269.28;12251332;19;20313;-84
2023/06/29 03:25:51;;;;;;;;;;;18.70;46.70;;;17.69;47.74;101250.75;12253200;19;19907;-84
2023/06/29 03:29:53;;;;;;;;;;;18.60;46.70;;;17.51;48.01;101231.00;12249193;19;20353;-84
2023/06/29 03:33:58;;;;;;;;;;;18.60;46.70;;;17.46;48.06;101247.19;12250558;19;19934;-84
2023/06/29 03:37:59;;;;;;;;;;;18.50;46.70;;;17.40;47.90;101251.16;12251730;19;19922;-84
2023/06/29 03:42:01;;;;;;;;;;;18.40;46.60;;;17.36;47.75;101252.34;12248419;19;19919;-84
2023/06/29 03:46:03;;;;;;;;;;;18.30;46.60;;;17.17;47.76;101234.38;12247258;19;19946;-84
2023/06/29 03:50:05;;;;;;;;;;;18.30;46.80;;;17.16;48.09;101234.50;12249899;19;19931;-84
2023/06/29 03:54:06;;;;;;;;;;;18.20;46.80;;;17.27;48.22;101253.03;12244785;19;20337;-84
2023/06/29 03:58:08;;;;;;;;;;;18.20;46.90;;;17.30;48.37;101265.16;12251667;19;20337;-84
2023/06/29 04:02:10;;;;;;;;;;;18.20;47.00;;;17.05;48.14;101222.13;12246971;19;20333;-84
2023/06/29 04:06:11;;;;;;;;;;;18.20;47.10;;;17.27;48.11;101260.09;12250120;19;19994;-84
2023/06/29 04:10:13;;;;;;;;;;;18.20;47.20;;;17.20;48.21;101247.38;12249385;19;19922;-84
2023/06/29 04:14:14;;;;;;;;;;;18.20;47.20;;;17.29;48.09;101266.13;12245313;19;19990;-84
2023/06/29 04:18:16;;;;;;;;;;;18.20;47.20;;;17.27;48.07;101263.59;12249636;19;19923;-84
2023/06/29 04:22:17;;;;;;;;;;;18.20;47.30;;;17.13;48.21;101230.31;12246105;19;19906;-84
2023/06/29 04:26:21;;;;;;;;;;;18.20;47.50;;;17.41;48.37;101270.47;12244434;19;19964;-84
2023/06/29 04:30:22;;;;;;;;;;;18.30;47.60;;;17.39;48.48;101267.09;12247347;19;19918;-84
2023/06/29 04:34:24;;;;;;;;;;;18.30;47.60;;;17.47;48.50;101270.00;12236158;19;19914;-84
2023/06/29 04:38:27;;;;;;;;;;;18.30;47.70;;;17.34;48.65;101241.06;12244426;19;19974;-85
2023/06/29 04:42:30;;;;;;;;;;;18.40;47.80;;;17.51;48.40;101268.81;12244201;19;19926;-84
2023/06/29 04:46:31;;;;;;;;;;;18.50;47.90;;;17.64;48.51;101266.94;12244442;19;19934;-85
2023/06/29 04:50:36;;;;;;;;;;;18.50;48.00;;;17.60;48.72;101249.63;12244732;19;19956;-85
2023/06/29 04:54:38;;;;;;;;;;;18.60;48.00;;;17.75;48.80;101257.34;12244678;19;19943;-83
2023/06/29 04:58:40;;;;;;;;;;;18.70;48.20;;;17.89;48.79;101265.06;12248179;19;19918;-82
2023/06/29 05:02:41;;;;;;;;;;;18.80;48.60;;;18.04;48.87;101263.06;12244758;19;19952;-82
2023/06/29 05:06:43;;;;;;;;;;;18.90;49.00;;;18.20;48.94;101255.59;12248056;19;19922;-82
2023/06/29 05:10:45;;;;;;;;;;;19.10;49.30;;;18.27;49.22;101237.44;12248466;19;19930;-83
2023/06/29 05:14:46;;;;;;;;;;;19.30;49.20;;;18.46;49.20;101242.09;12244915;19;19911;-83
2023/06/29 05:18:48;;;;;;;;;;;19.50;49.30;;;18.59;49.33;101237.50;12249578;19;19915;-82
2023/06/29 05:22:49;;;;;;;;;;;19.70;49.20;;;18.73;49.12;101241.66;12247166;19;20365;-82
2023/06/29 05:26:51;;;;;;;;;;;19.90;49.30;;;18.88;49.18;101243.09;12251860;19;19934;-82
2023/06/29 05:30:52;;;;;;;;;;;20.00;49.30;;;19.06;49.39;101261.06;12247641;19;20337;-83
2023/06/29 05:34:54;;;;;;;;;;;20.10;49.30;;;19.07;49.33;101231.84;12247806;19;19915;-83
2023/06/29 05:38:56;;;;;;;;;;;20.30;49.30;;;19.41;49.47;101258.97;12248911;19;20391;-82
2023/06/29 05:42:58;;;;;;;;;;;20.50;49.40;;;19.56;49.58;101254.19;12246172;19;19990;-82
2023/06/29 05:46:59;;;;;;;;;;;20.70;49.50;;;19.78;49.82;101250.59;12250640;19;19915;-83
2023/06/29 05:51:00;;;;;;;;;;;20.90;49.50;;;20.03;49.65;101259.06;12246867;19;19926;-82
2023/06/29 05:55:02;;;;;;;;;;;21.10;49.70;;;20.23;49.66;101254.69;12259527;19;19934;-83
2023/06/29 05:59:04;;;;;;;;;;;21.30;49.50;;;20.46;49.81;101258.78;12259993;19;19923;-84
2023/06/29 06:03:06;;;;;;;;;;;21.60;49.40;;;20.60;49.83;101248.81;12249574;19;19919;-81
2023/06/29 06:07:08;;;;;;;;;;;21.80;49.40;;;20.85;50.04;101263.38;12252601;19;19922;-81
2023/06/29 06:11:09;;;;;;;;;;;22.00;49.20;;;20.94;49.94;101244.78;12255350;19;19931;-81
2023/06/29 06:15:13;;;;;;;;;;;22.20;49.10;;;21.11;49.74;101259.19;12253895;19;19935;-81
2023/06/29 06:19:15;;;;;;;;;;;22.40;49.00;;;21.32;49.98;101256.38;12256113;19;19911;-81
2023/06/29 06:23:17;;;;;;;;;;;22.50;49.10;;;21.53;49.80;101256.25;12253871;19;19919;-82
2023/06/29 06:27:19;;;;;;;;;;;22.80;49.10;;;21.73;50.07;101248.22;12253972;19;20618;-81
2023/06/29 06:31:20;;;;;;;;;;;22.90;49.10;;;21.91;50.11;101241.16;12256182;19;19930;-82
2023/06/29 06:35:22;;;;;;;;;;;23.20;49.00;;;22.17;49.98;101249.31;12255889;19;19927;-82
2023/06/29 06:39:23;;;;;;;;;;;23.30;49.00;;;22.38;49.78;101251.72;12251129;19;19918;-81
2023/06/29 06:43:25;;;;;;;;;;;23.60;48.90;;;22.59;49.76;101246.16;12246558;19;19931;-81
2023/06/29 06:47:27;;;;;;;;;;;23.80;48.90;;;22.78;49.99;101247.84;12249496;19;19926;-81
2023/06/29 06:51:32;;;;;;;;;;;24.00;48.60;;;22.94;49.81;101245.31;12245929;19;20212;-81
2023/06/29 06:55:34;;;;;;;;;;;24.30;48.40;;;23.12;49.97;101239.19;12252831;19;19919;-81
2023/06/29 06:59:35;;;;;;;;;;;24.50;48.30;;;23.32;49.65;101237.16;12252274;19;19933;-82
2023/06/29 07:03:37;;;;;;;;;;;24.60;48.20;;;23.48;49.67;101231.13;12255728;19;19990;-82
2023/06/29 07:07:38;;;;;;;;;;;24.80;48.10;;;23.62;50.13;101233.19;12259240;19;19911;-82
2023/06/29 07:11:40;;;;;;;;;;;24.90;48.10;;;23.81;49.86;101226.84;12257647;19;19926;-83
2023/06/29 07:15:42;;;;;;;;;;;25.10;47.90;;;24.00;49.89;101229.25;12256728;19;19923;-81
2023/06/29 07:19:43;;;;;;;;;;;25.30;47.70;;;24.14;49.64;101226.97;12258245;19;19922;-83
2023/06/29 07:23:45;;;;;;;;;;;25.40;47.80;;;24.34;49.84;101235.56;12247433;19;19922;-81
2023/06/29 07:27:47;;;;;;;;;;;25.60;47.80;;;24.52;49.56;101233.66;12250484;19;20263;-82
2023/06/29 07:31:48;;;;;;;;;;;25.80;47.90;;;24.70;49.78;101228.16;12243114;19;19943;-81
2023/06/29 07:35:50;;;;;;;;;;;26.00;47.90;;;24.86;49.35;101233.53;12252650;19;19948;-82
2023/06/29 07:39:51;;;;;;;;;;;26.10;47.00;;;24.92;49.25;101222.19;12251104;19;19929;-81
2023/06/29 07:43:55;;;;;;;;;;;26.20;47.30;;;25.08;49.60;101226.69;12246857;19;19934;-81
2023/06/29 07:47:57;;;;;;;;;;;26.30;47.20;;;25.06;49.17;101215.34;12251790;19;19930;-81
2023/06/29 07:51:58;;;;;;;;;;;26.40;46.90;;;25.21;49.07;101228.06;12244051;19;19939;-81
2023/06/29 07:56:00;;;;;;;;;;;26.50;46.90;;;25.33;49.26;101227.53;12251976;19;19927;-81
2023/06/29 08:00:03;;;;;;;;;;;26.60;46.70;;;25.50;49.36;101228.34;12249624;19;19915;-82
2023/06/29 08:04:20;;;;;;;;;;;26.70;46.20;;;25.63;49.04;101219.81;12246536;19;19914;-81
2023/06/29 08:08:22;;;;;;;;;;;26.80;46.50;;;25.80;49.26;101223.25;12244897;19;19922;-80
2023/06/29 08:12:24;;;;;;;;;;;26.90;45.50;;;25.88;48.70;101201.03;12244468;19;19925;-82
2023/06/29 08:16:26;;;;;;;;;;;27.10;45.90;;;26.01;48.77;101203.97;12243049;19;19927;-82
2023/06/29 08:20:28;;;;;;;;;;;27.20;45.00;;;26.04;48.52;101196.41;12249204;19;19918;-82
2023/06/29 08:24:29;;;;;;;;;;;27.30;46.00;;;26.23;48.77;101215.75;12242912;19;19918;-82
2023/06/29 08:28:31;;;;;;;;;;;27.40;45.20;;;26.25;48.32;101209.22;12242975;19;19922;-82
2023/06/29 08:32:33;;;;;;;;;;;27.40;45.50;;;26.28;48.39;101213.38;12241379;19;19926;-81
2023/06/29 08:36:35;;;;;;;;;;;27.50;45.30;;;26.25;48.65;101197.66;12245963;19;19938;-83
2023/06/29 08:40:38;;;;;;;;;;;27.50;45.70;;;26.28;48.16;101205.34;12243759;19;19938;-81
2023/06/29 08:44:40;;;;;;;;;;;27.50;45.80;;;26.34;48.38;101212.66;12238588;19;19919;-81
2023/06/29 08:48:42;;;;;;;;;;;27.50;43.70;;;26.31;48.21;101214.88;12245471;19;19961;-81
2023/06/29 08:52:44;;;;;;;;;;;27.50;45.20;;;26.18;48.22;101196.69;12239321;19;20569;-83
2023/06/29 08:56:47;;;;;;;;;;;27.40;45.30;;;26.24;47.58;101207.50;12243103;19;19907;-81
2023/06/29 09:00:49;;;;;;;;;;;27.40;45.10;;;26.21;48.00;101215.06;12241455;19;19915;-81
2023/06/29 09:04:51;;;;;;;;;;;27.30;45.30;;;26.17;47.84;101205.75;12239593;19;19947;-81
2023/06/29 09:08:53;;;;;;;;;;;27.30;45.40;;;26.11;47.84;101207.25;12242232;19;19914;-81
2023/06/29 09:12:55;;;;;;;;;;;27.10;45.40;;;26.13;47.68;101215.13;12236958;19;19915;-82
2023/06/29 09:16:58;;;;;;;;;;;27.10;45.60;;;26.13;47.37;101215.94;12240058;19;19922;-82
2023/06/29 09:21:00;;;;;;;;;;;27.10;45.60;;;26.03;47.33;101199.25;12242419;19;19919;-81
2023/06/29 09:25:03;;;;;;;;;;;27.10;45.40;;;26.11;47.50;101211.78;12243001;19;19979;-82
2023/06/29 09:29:05;;;;;;;;;;;27.00;45.50;;;26.05;47.41;101207.97;12251330;19;19922;-82
2023/06/29 09:33:09;;;;;;;;;;;27.00;45.50;;;26.08;47.32;101204.94;12248648;19;19998;-82
2023/06/29 09:37:16;;;;;;;;;;;27.00;45.60;;;26.04;47.72;101195.59;12253850;19;20641;-81
2023/06/29 09:41:17;;;;;;;;;;;27.00;45.60;;;26.10;47.51;101202.91;12248976;19;19982;-82
2023/06/29 09:45:19;;;;;;;;;;;27.00;45.60;;;26.15;47.20;101202.41;12251394;19;19937;-82
2023/06/29 09:49:21;;;;;;;;;;;27.10;45.60;;;26.22;47.33;101200.66;12248958;19;19918;-81
2023/06/29 09:53:32;;;;;;;;;;;27.10;45.40;;;26.27;47.43;101200.97;12246732;19;19933;-82
2023/06/29 09:57:34;;;;;;;;;;;27.10;45.10;;;26.24;46.94;101193.31;12249913;19;19949;-82
2023/06/29 10:01:40;;;;;;;;;;;27.20;45.30;;;26.24;47.17;101196.81;12249715;19;19951;-81
2023/06/29 10:05:41;;;;;;;;;;;27.10;45.20;;;26.21;47.34;101199.00;12250620;19;19923;-81
2023/06/29 10:09:47;;;;;;;;;;;27.10;45.30;;;26.25;46.97;101192.31;12251847;19;19919;-81
2023/06/29 10:13:51;;;;;;;;;;;27.10;45.10;;;26.26;46.88;101188.63;12244969;19;20325;-81
2023/06/29 10:18:01;;;;;;;;;;;27.10;44.80;;;26.20;46.82;101190.16;12251507;19;19915;-81
2023/06/29 10:22:07;;;;;;;;;;;27.10;45.10;;;26.26;46.95;101193.97;12246940;19;19922;-81
2023/06/29 10:26:10;;;;;;;;;;;27.10;45.00;;;26.24;46.74;101175.38;12249883;19;19978;-81
2023/06/29 10:30:21;;;;;;;;;;;27.10;45.30;;;26.33;46.59;101184.22;12248150;19;19915;-81
2023/06/29 10:34:26;;;;;;;;;;;27.20;45.00;;;26.31;46.72;101170.16;12243462;19;19914;-82
2023/06/29 10:38:32;;;;;;;;;;;27.20;45.30;;;26.31;46.91;101164.81;12246206;19;19915;-81
2023/06/29 10:42:37;;;;;;;;;;;27.20;45.30;;;26.39;46.53;101166.63;12245830;19;20374;-81
2023/06/29 10:46:45;;;;;;;;;;;27.20;45.10;;;26.41;46.70;101159.22;12248475;19;20461;-82
2023/06/29 10:50:49;;;;;;;;;;;27.20;45.10;;;26.51;47.03;101162.53;12249699;19;19923;-81
2023/06/29 10:55:18;;;;;;;;;;;27.30;44.10;;;26.60;46.57;101150.75;12242348;19;19919;-82
2023/06/29 10:59:20;;;;;;;;;;;27.40;44.40;;;26.71;46.63;101146.81;12249483;19;19937;-81
2023/06/29 11:03:23;;;;;;;;;;;27.50;44.90;;;26.83;46.42;101145.34;12243314;19;19930;-82
2023/06/29 11:07:25;;;;;;;;;;;27.70;44.80;;;26.95;46.62;101147.59;12246355;19;20017;-81
2023/06/29 11:11:27;;;;;;;;;;;27.80;44.70;;;27.03;46.51;101143.00;12243423;19;19922;-82
2023/06/29 11:15:32;;;;;;;;;;;27.90;44.90;;;27.12;46.46;101143.75;12246257;19;20319;-82
2023/06/29 11:19:34;;;;;;;;;;;28.00;44.10;;;27.17;46.09;101138.72;12245585;19;19931;-82
2023/06/29 11:23:36;;;;;;;;;;;28.00;43.90;;;27.22;46.34;101140.81;12244100;19;19923;-83
2023/06/29 11:27:37;;;;;;;;;;;28.10;44.20;;;27.28;46.61;101132.88;12245275;19;20360;-81
2023/06/29 11:31:39;;;;;;;;;;;28.20;44.60;;;27.30;46.15;101117.44;12244005;19;20256;-82
2023/06/29 11:35:42;;;;;;;;;;;28.30;45.10;;;27.41;46.17;101126.03;12245846;19;19947;-82
2023/06/29 11:39:48;;;;;;;;;;;28.30;41.40;;;27.49;46.06;101108.00;12245661;19;19990;-82
2023/06/29 11:43:51;;;;;;;;;;;28.40;43.90;;;27.62;46.15;101115.38;12243164;19;20434;-82
2023/06/29 11:47:56;;;;;;;;;;;28.50;44.30;;;27.71;45.98;101111.56;12246041;19;20266;-81
2023/06/29 11:51:57;;;;;;;;;;;28.60;44.60;;;27.74;45.78;101103.16;12242948;19;20333;-81
2023/06/29 11:55:59;;;;;;;;;;;28.70;44.40;;;27.84;45.97;101105.56;12242571;19;19934;-81
2023/06/29 12:00:02;;;;;;;;;;;28.70;42.50;;;27.89;46.23;101100.44;12246247;19;19952;-81
2023/06/29 12:04:13;;;;;;;;;;;28.80;44.10;;;27.93;45.64;101096.38;12239924;19;20338;-81
2023/06/29 12:08:14;;;;;;;;;;;28.80;44.00;;;27.87;45.93;101074.81;12242648;19;19922;-81
2023/06/29 12:12:16;;;;;;;;;;;28.90;44.20;;;28.00;45.62;101080.31;12242871;19;19922;-82
2023/06/29 12:16:19;;;;;;;;;;;28.90;43.80;;;27.91;45.72;101065.38;12243457;19;19927;-81
2023/06/29 12:20:21;;;;;;;;;;;28.90;43.20;;;28.06;45.34;101076.88;12240773;19;19919;-82
2023/06/29 12:24:25;;;;;;;;;;;29.00;43.90;;;28.08;45.52;101074.00;12240895;19;19942;-82
2023/06/29 12:28:26;;;;;;;;;;;29.00;44.00;;;28.15;45.35;101067.69;12242119;19;20369;-82
2023/06/29 12:32:28;;;;;;;;;;;29.00;44.00;;;28.24;45.46;101071.88;12243006;19;19923;-81
2023/06/29 12:36:29;;;;;;;;;;;29.10;43.80;;;28.30;45.56;101067.63;12242475;19;19918;-81
2023/06/29 12:40:31;;;;;;;;;;;29.10;44.10;;;28.36;45.50;101060.63;12244212;19;19915;-82
2023/06/29 12:44:33;;;;;;;;;;;29.20;43.80;;;28.40;45.40;101067.28;12239201;19;19946;-82
2023/06/29 12:48:36;;;;;;;;;;;29.30;43.20;;;28.35;45.28;101054.41;12245405;19;20444;-82
2023/06/29 12:52:37;;;;;;;;;;;29.30;43.30;;;28.37;45.28;101055.06;12237892;19;20342;-81
2023/06/29 12:56:39;;;;;;;;;;;29.30;43.70;;;28.38;45.26;101050.50;12242389;19;20154;-82
2023/06/29 13:00:40;;;;;;;;;;;29.30;44.10;;;28.42;44.81;101049.09;12238256;19;19914;-82
2023/06/29 13:04:42;;;;;;;;;;;29.30;43.70;;;28.40;45.34;101043.09;12239870;19;19915;-82
2023/06/29 13:08:43;;;;;;;;;;;29.30;43.90;;;28.51;45.04;101045.28;12239956;19;19943;-82
2023/06/29 13:12:45;;;;;;;;;;;29.30;43.90;;;28.54;45.22;101033.31;12238307;19;19923;-82
2023/06/29 13:16:47;;;;;;;;;;;29.40;44.00;;;28.62;45.00;101042.03;12240332;19;20341;-82
2023/06/29 13:20:48;;;;;;;;;;;29.50;44.00;;;28.58;44.88;101030.03;12242137;19;19948;-82
2023/06/29 13:24:49;;;;;;;;;;;29.50;43.60;;;28.65;44.61;101030.06;12237260;19;19943;-81
2023/06/29 13:28:51;;;;;;;;;;;29.50;43.70;;;28.66;44.95;101026.38;12238939;19;20357;-82
2023/06/29 13:32:53;;;;;;;;;;;29.50;43.50;;;28.57;44.66;101014.09;12239081;19;19923;-82
2023/06/29 13:36:55;;;;;;;;;;;29.50;43.50;;;28.64;44.65;101031.94;12238901;19;19915;-81
2023/06/29 13:40:56;;;;;;;;;;;29.50;43.80;;;28.63;44.49;101016.03;12241296;19;20000;-82
2023/06/29 13:44:58;;;;;;;;;;;29.50;43.70;;;28.66;44.75;101024.50;12237662;19;20383;-81
2023/06/29 13:49:00;;;;;;;;;;;29.50;43.80;;;28.70;44.65;101021.44;12241356;19;19936;-81
2023/06/29 13:53:02;;;;;;;;;;;29.40;43.70;;;28.68;45.04;100997.44;12237952;19;19919;-81
2023/06/29 13:57:05;;;;;;;;;;;29.50;43.80;;;28.76;44.73;100994.59;12237754;19;19941;-82
2023/06/29 14:01:07;;;;;;;;;;;29.60;43.80;;;28.83;44.58;100998.16;12236771;19;19948;-88
2023/06/29 14:05:08;;;;;;;;;;;29.60;43.80;;;28.89;44.59;100996.53;12240490;19;19924;-88
2023/06/29 14:09:11;;;;;;;;;;;29.60;43.60;;;28.78;44.36;100972.88;12241138;19;20015;-87
2023/06/29 14:13:12;;;;;;;;;;;29.70;43.80;;;28.71;44.48;100958.59;12240730;19;20304;-88
2023/06/29 14:17:18;;;;;;;;;;;29.70;43.70;;;28.70;44.31;100955.06;12256942;19;19918;-87
2023/06/29 14:21:21;;;;;;;;;;;29.70;43.70;;;28.89;44.03;100977.69;12255711;19;19922;-87
2023/06/29 14:25:22;;;;;;;;;;;29.70;43.60;;;28.88;44.22;100970.66;12256104;19;19943;-88
2023/06/29 14:29:24;;;;;;;;;;;29.70;43.70;;;28.92;44.48;100985.34;12256757;19;19940;-89
2023/06/29 14:33:26;;;;;;;;;;;29.70;43.60;;;28.88;44.16;100965.28;12253821;19;19914;-87
2023/06/29 14:37:28;;;;;;;;;;;29.70;43.50;;;28.94;44.03;100966.34;12242320;19;19921;-88
2023/06/29 14:41:29;;;;;;;;;;;29.70;43.60;;;28.94;43.87;100963.66;12254111;19;19936;-88
2023/06/29 14:45:31;;;;;;;;;;;29.70;43.60;;;28.91;44.05;100954.13;12253265;19;19923;-88
2023/06/29 14:49:32;;;;;;;;;;;29.70;43.50;;;28.88;44.37;100941.09;12254947;19;19918;-88
2023/06/29 14:53:34;;;;;;;;;;;29.70;43.30;;;28.88;44.35;100939.22;12249432;19;19918;-88
2023/06/29 14:57:35;;;;;;;;;;;29.70;42.60;;;28.98;44.01;100946.94;12255254;19;19930;-91
2023/06/29 15:01:37;;;;;;;;;;;29.80;43.40;;;28.96;44.10;100927.47;12253823;19;19923;-88
2023/06/29 15:05:39;;;;;;;;;;;29.80;43.40;;;28.95;44.08;100928.53;12254696;19;19915;-88
2023/06/29 15:09:40;;;;;;;;;;;29.80;43.40;;;29.01;43.85;100935.78;12252510;19;19915;-88
2023/06/29 15:13:42;;;;;;;;;;;29.80;43.00;;;29.09;43.92;100943.69;12248072;19;19930;-88
2023/06/29 15:17:44;;;;;;;;;;;29.80;43.00;;;29.09;43.79;100924.88;12250574;19;19918;-89
2023/06/29 15:21:45;;;;;;;;;;;29.80;43.20;;;29.05;43.77;100909.34;12251158;19;19919;-88
2023/06/29 15:25:47;;;;;;;;;;;29.90;43.70;;;28.84;43.57;100878.84;12250365;19;19922;-88
2023/06/29 15:29:50;;;;;;;;;;;29.90;43.20;;;29.10;43.88;100907.69;12254449;19;19919;-88
2023/06/29 15:33:52;;;;;;;;;;;29.90;43.20;;;29.21;43.72;100916.22;12249980;19;19953;-86
2023/06/29 15:37:53;;;;;;;;;;;29.90;42.40;;;29.05;43.96;100879.75;12251537;19;19918;-88
2023/06/29 15:41:55;;;;;;;;;;;30.00;42.70;;;28.93;43.81;100859.84;12250495;19;19918;-88
2023/06/29 15:45:56;;;;;;;;;;;29.90;42.20;;;29.18;43.51;100897.78;12252107;19;20353;-88
2023/06/29 15:49:59;;;;;;;;;;;29.90;42.90;;;29.28;43.91;100900.94;12240749;19;19967;-88
2023/06/29 15:54:01;;;;;;;;;;;30.00;42.90;;;29.33;43.88;100898.47;12246878;19;19910;-88
2023/06/29 15:58:02;;;;;;;;;;;30.10;43.10;;;29.34;43.43;100878.56;12245542;19;19922;-90
2023/06/29 16:02:04;;;;;;;;;;;30.10;43.00;;;29.39;43.64;100876.09;12244336;19;20361;-88
2023/06/29 16:06:05;;;;;;;;;;;30.10;42.80;;;29.27;43.57;100837.38;12250417;19;19999;-88
2023/06/29 16:10:08;;;;;;;;;;;30.20;42.90;;;29.49;43.53;100867.63;12248153;19;19922;-88
2023/06/29 16:14:09;;;;;;;;;;;30.20;42.90;;;29.31;43.34;100826.00;12244583;19;19918;-88
2023/06/29 16:18:11;;;;;;;;;;;30.20;43.00;;;29.58;43.57;100857.50;12245281;19;19990;-88
2023/06/29 16:22:12;;;;;;;;;;;30.30;42.90;;;29.57;43.60;100856.66;12248164;19;19915;-88
2023/06/29 16:26:13;;;;;;;;;;;30.30;42.70;;;29.53;43.52;100848.16;12245012;19;19918;-88
2023/06/29 16:30:15;;;;;;;;;;;30.30;42.80;;;29.55;43.02;100840.72;12246781;19;19914;-88
2023/06/29 16:34:17;;;;;;;;;;;30.30;42.70;;;29.60;43.06;100847.31;12239821;19;19911;-88
2023/06/29 16:38:19;;;;;;;;;;;30.30;42.70;;;29.55;43.26;100842.59;12243312;19;19927;-88
2023/06/29 16:42:20;;;;;;;;;;;30.30;42.70;;;29.52;43.00;100843.81;12234765;19;19982;-88
2023/06/29 16:46:22;;;;;;;;;;;30.30;42.60;;;29.49;42.85;100838.88;12246177;19;19946;-88
2023/06/29 16:50:24;;;;;;;;;;;30.30;42.70;;;29.51;42.97;100847.53;12245054;19;19918;-88
2023/06/29 16:54:25;;;;;;;;;;;30.20;42.70;;;29.43;42.89;100838.84;12240397;19;19933;-88
2023/06/29 16:58:27;;;;;;;;;;;30.20;42.70;;;29.44;42.80;100835.13;12249022;19;20316;-88
2023/06/29 17:02:28;;;;;;;;;;;30.20;42.70;;;29.42;42.99;100832.63;12241626;19;19923;-89
2023/06/29 17:06:30;;;;;;;;;;;30.10;42.70;;;29.40;42.94;100840.06;12247586;19;19918;-88
2023/06/29 17:10:31;;;;;;;;;;;30.10;42.70;;;29.38;43.11;100842.16;12246666;19;19919;-88
2023/06/29 17:14:33;;;;;;;;;;;30.10;42.80;;;29.32;42.92;100826.81;12240874;19;19992;-88
2023/06/29 17:18:35;;;;;;;;;;;30.10;42.80;;;29.37;42.76;100840.50;12248875;19;19931;-88
2023/06/29 17:22:37;;;;;;;;;;;30.00;43.00;;;29.33;43.08;100840.09;12246147;19;19939;-88
2023/06/29 17:26:39;;;;;;;;;;;30.00;43.20;;;29.21;42.62;100830.13;12244564;19;19979;-88
2023/06/29 17:30:41;;;;;;;;;;;30.00;43.20;;;29.18;42.65;100831.38;12245125;19;19930;-88
2023/06/29 17:34:42;;;;;;;;;;;29.90;43.20;;;29.12;42.85;100826.81;12243234;19;19930;-88
2023/06/29 17:38:44;;;;;;;;;;;29.80;43.20;;;29.05;43.04;100818.72;12244742;19;19918;-89
2023/06/29 17:42:46;;;;;;;;;;;29.80;43.20;;;29.00;42.71;100821.19;12242488;19;19923;-89
2023/06/29 17:46:48;;;;;;;;;;;29.70;43.20;;;28.95;42.72;100825.50;12245956;19;19919;-89
2023/06/29 17:50:50;;;;;;;;;;;29.60;43.10;;;28.72;42.48;100790.91;12257183;19;19927;-89
2023/06/29 17:54:52;;;;;;;;;;;29.60;43.20;;;28.83;42.56;100809.97;12254153;19;20365;-87
2023/06/29 17:58:53;;;;;;;;;;;29.50;43.30;;;28.78;42.79;100808.91;12255901;19;19910;-88
2023/06/29 18:02:55;;;;;;;;;;;29.50;43.50;;;28.80;43.11;100804.16;12250600;19;19933;-88
2023/06/29 18:06:59;;;;;;;;;;;29.40;43.50;;;28.77;43.23;100800.03;12253040;19;19918;-89
2023/06/29 18:11:01;;;;;;;;;;;29.40;43.60;;;28.60;43.02;100780.75;12250604;19;20349;-89